Time;durP1;ratioP1;P1;durP2;ratioP2;P2;SDS_P1;SDS_P2;PMS_P1;PMS_P2;Temp;Humidity;BMP_temperature;BMP_pressure;BME280_temperature;BME280_humidity;BME280_pressure;Samples;Min_cycle;Max_cycle;Signal;HPM_P1;HPM_P2
2022/06/09 00:02:25;;;;;;;9.68;3.75;;;15.80;99.90;;;;;;5030988;28;20065;-66
2022/06/09 00:04:51;;;;;;;11.60;4.20;;;15.80;99.90;;;;;;5030554;28;20033;-65
2022/06/09 00:07:21;;;;;;;13.68;3.90;;;15.80;99.90;;;;;;5030013;28;20025;-65
2022/06/09 00:09:54;;;;;;;12.15;4.47;;;15.80;99.90;;;;;;5029998;28;20071;-66
2022/06/09 00:12:22;;;;;;;10.13;3.38;;;15.80;99.90;;;;;;5030591;28;20032;-65
2022/06/09 00:14:48;;;;;;;11.05;3.92;;;15.80;99.90;;;;;;5030937;28;20028;-65
2022/06/09 00:17:14;;;;;;;13.60;4.43;;;15.80;99.90;;;;;;5030138;28;20394;-65
2022/06/09 00:19:40;;;;;;;11.35;3.53;;;15.80;99.90;;;;;;5030257;28;20037;-65
2022/06/09 00:22:06;;;;;;;11.52;3.70;;;15.80;99.90;;;;;;5030126;28;20030;-65
2022/06/09 00:24:33;;;;;;;11.75;3.33;;;15.80;99.90;;;;;;5030335;28;20033;-65
2022/06/09 00:26:59;;;;;;;12.30;3.72;;;15.80;99.90;;;;;;5029967;28;20029;-65
2022/06/09 00:29:25;;;;;;;9.27;3.67;;;15.80;99.90;;;;;;5030609;28;20030;-65
2022/06/09 00:31:51;;;;;;;11.65;3.30;;;15.80;99.90;;;;;;5030416;28;20401;-65
2022/06/09 00:34:17;;;;;;;11.20;3.33;;;15.80;99.90;;;;;;5030175;28;20028;-65
2022/06/09 00:36:43;;;;;;;11.02;3.13;;;15.80;99.90;;;;;;5029996;28;20076;-65
2022/06/09 00:39:09;;;;;;;8.60;2.90;;;15.80;99.90;;;;;;5029763;28;20112;-65
2022/06/09 00:41:40;;;;;;;13.18;3.63;;;15.80;99.90;;;;;;5030079;28;20049;-65
2022/06/09 00:44:21;;;;;;;10.38;3.25;;;15.80;99.90;;;;;;5030466;28;20549;-65
2022/06/09 00:46:54;;;;;;;11.77;3.20;;;15.80;99.90;;;;;;5030087;28;20070;-65
2022/06/09 00:49:45;;;;;;;8.93;2.83;;;15.80;99.90;;;;;;5029774;28;20029;-65
2022/06/09 00:52:15;;;;;;;9.00;2.75;;;15.80;99.90;;;;;;5029440;28;20120;-66
2022/06/09 00:54:45;;;;;;;9.52;3.03;;;15.80;99.90;;;;;;5028786;28;20033;-65
2022/06/09 00:57:24;;;;;;;13.18;3.10;;;15.80;99.90;;;;;;5029754;28;20033;-66
2022/06/09 00:59:54;;;;;;;9.90;2.60;;;15.80;99.90;;;;;;5029758;28;20116;-65
2022/06/09 01:02:22;;;;;;;10.75;2.58;;;15.80;99.90;;;;;;5030166;28;20444;-65
2022/06/09 01:04:51;;;;;;;8.15;2.33;;;15.70;99.90;;;;;;5029931;28;20490;-66
2022/06/09 01:07:21;;;;;;;;;;;15.70;99.90;;;;;;5029445;28;20838;-66
2022/06/09 01:09:47;;;;;;;12.10;2.63;;;15.70;99.90;;;;;;5029914;28;19971;-66
2022/06/09 01:12:32;;;;;;;11.02;2.78;;;15.70;99.90;;;;;;5029904;28;20025;-65
2022/06/09 01:15:20;;;;;;;8.70;2.60;;;15.70;99.90;;;;;;5029829;28;20037;-66
2022/06/09 01:18:24;;;;;;;8.40;2.90;;;15.70;99.90;;;;;;5029267;28;20532;-66
2022/06/09 01:20:58;;;;;;;11.38;2.80;;;15.70;99.90;;;;;;5029657;28;20034;-66
2022/06/09 01:23:52;;;;;;;11.30;2.50;;;15.70;99.90;;;;;;5031679;28;20112;-66
2022/06/09 01:26:40;;;;;;;9.73;2.22;;;15.70;99.90;;;;;;5033224;28;20049;-66
2022/06/09 01:29:30;;;;;;;13.20;2.58;;;15.70;99.90;;;;;;5033341;28;20139;-66
2022/06/09 01:32:17;;;;;;;8.30;2.45;;;15.70;99.90;;;;;;5032077;28;20402;-66
2022/06/09 01:35:13;;;;;;;11.65;2.35;;;15.70;99.90;;;;;;5033614;28;20060;-65
2022/06/09 01:37:44;;;;;;;10.20;2.42;;;15.70;99.90;;;;;;5032690;28;20025;-66
2022/06/09 01:40:13;;;;;;;11.75;2.72;;;15.70;99.90;;;;;;5033220;28;20071;-65
2022/06/09 01:42:43;;;;;;;11.85;2.88;;;15.70;99.90;;;;;;5033610;28;20172;-66
2022/06/09 01:45:22;;;;;;;11.77;2.50;;;15.60;99.90;;;;;;5033512;28;20033;-66
2022/06/09 01:48:05;;;;;;;11.20;2.90;;;15.60;99.90;;;;;;5031522;28;20025;-65
2022/06/09 01:50:43;;;;;;;12.70;2.90;;;15.60;99.90;;;;;;5033095;28;20028;-65
2022/06/09 01:53:15;;;;;;;10.20;2.88;;;15.60;99.90;;;;;;5032624;28;20047;-65
2022/06/09 01:55:46;;;;;;;11.35;2.70;;;15.60;99.90;;;;;;5033041;28;20033;-66
2022/06/09 01:58:17;;;;;;;12.05;2.75;;;15.60;99.90;;;;;;5033101;28;20434;-66
2022/06/09 02:00:44;;;;;;;12.60;3.38;;;15.60;99.90;;;;;;5033040;28;20405;-66
2022/06/09 02:03:15;;;;;;;8.95;2.90;;;15.60;99.90;;;;;;5033062;28;20068;-66
2022/06/09 02:05:47;;;;;;;12.13;2.78;;;15.50;99.90;;;;;;5032888;28;20022;-66
2022/06/09 02:08:15;;;;;;;9.55;3.10;;;15.50;99.90;;;;;;5032359;28;20029;-66
2022/06/09 02:10:56;;;;;;;10.02;3.13;;;15.50;99.90;;;;;;5032764;28;20029;-66
2022/06/09 02:13:28;;;;;;;10.75;2.85;;;15.40;99.90;;;;;;5032803;28;20044;-66
2022/06/09 02:15:59;;;;;;;10.07;2.35;;;15.40;99.90;;;;;;5032713;28;20063;-66
2022/06/09 02:18:29;;;;;;;12.77;3.03;;;15.50;99.90;;;;;;5032495;28;20406;-66
2022/06/09 02:20:55;;;;;;;7.75;2.45;;;15.40;99.90;;;;;;5032733;28;20493;-66
2022/06/09 02:23:21;;;;;;;10.55;2.90;;;15.40;99.90;;;;;;5032013;28;20044;-66
2022/06/09 02:25:46;;;;;;;12.38;2.78;;;15.40;99.90;;;;;;5032462;28;20109;-66
2022/06/09 02:28:12;;;;;;;11.80;2.80;;;15.40;99.90;;;;;;5032489;28;20112;-66
2022/06/09 02:30:39;;;;;;;15.30;3.55;;;15.30;99.90;;;;;;5032128;28;20044;-66
2022/06/09 02:33:06;;;;;;;7.95;2.47;;;15.40;99.90;;;;;;5031734;28;20029;-65
2022/06/09 02:35:32;;;;;;;9.23;2.60;;;15.30;99.90;;;;;;5032336;28;20030;-66
2022/06/09 02:38:00;;;;;;;13.02;2.50;;;15.30;99.90;;;;;;5031666;28;20029;-66
2022/06/09 02:40:28;;;;;;;11.32;2.35;;;15.30;99.90;;;;;;5032257;28;20064;-66
2022/06/09 02:42:54;;;;;;;7.70;2.30;;;15.30;99.90;;;;;;5032171;28;20112;-66
2022/06/09 02:45:20;;;;;;;12.02;2.40;;;15.30;99.90;;;;;;5031990;28;20132;-66
2022/06/09 02:47:47;;;;;;;7.57;2.70;;;15.20;99.90;;;;;;5031912;28;20032;-66
2022/06/09 02:50:16;;;;;;;10.60;2.53;;;15.20;99.90;;;;;;5031864;28;20033;-66
2022/06/09 02:52:42;;;;;;;;;;;15.20;99.90;;;;;;5030748;28;20060;-66
2022/06/09 02:55:09;;;;;;;11.25;2.38;;;15.20;99.90;;;;;;5032327;28;19948;-66
2022/06/09 02:57:36;;;;;;;12.95;2.90;;;15.20;99.90;;;;;;5031553;28;20029;-66
2022/06/09 03:00:05;;;;;;;12.05;2.72;;;15.30;99.90;;;;;;5032211;28;20036;-66
2022/06/09 03:02:31;;;;;;;14.50;3.20;;;15.30;99.90;;;;;;5031819;28;20039;-66
2022/06/09 03:04:58;;;;;;;9.27;2.40;;;15.30;99.90;;;;;;5032061;28;20099;-66
2022/06/09 03:07:25;;;;;;;9.75;2.50;;;15.30;99.90;;;;;;5031267;28;20116;-66
2022/06/09 03:09:51;;;;;;;11.52;2.58;;;15.30;99.90;;;;;;5031762;28;20075;-66
2022/06/09 03:12:18;;;;;;;15.68;3.00;;;15.30;99.90;;;;;;5031771;28;20394;-66
2022/06/09 03:14:44;;;;;;;11.30;2.70;;;15.30;99.90;;;;;;5031894;28;20018;-66
2022/06/09 03:17:10;;;;;;;12.68;3.65;;;15.30;99.90;;;;;;5031433;28;20242;-66
2022/06/09 03:19:37;;;;;;;12.55;3.42;;;15.30;99.90;;;;;;5031813;28;20041;-65
2022/06/09 03:22:03;;;;;;;13.88;3.63;;;15.30;99.90;;;;;;5031279;28;20029;-66
2022/06/09 03:24:29;;;;;;;9.10;3.38;;;15.30;99.90;;;;;;5031646;28;20112;-65
2022/06/09 03:26:56;;;;;;;11.32;3.53;;;15.30;99.90;;;;;;5031135;28;20029;-66
2022/06/09 03:29:23;;;;;;;14.48;3.47;;;15.30;99.90;;;;;;5031454;28;20073;-66
2022/06/09 03:31:49;;;;;;;13.80;3.63;;;15.30;99.90;;;;;;5031255;28;20095;-65
2022/06/09 03:34:18;;;;;;;14.85;4.07;;;15.30;99.90;;;;;;5031683;28;20474;-65
2022/06/09 03:36:45;;;;;;;16.15;4.10;;;15.30;99.90;;;;;;5031110;28;20022;-65
2022/06/09 03:39:12;;;;;;;18.95;4.95;;;15.30;99.90;;;;;;5030792;28;20356;-65
2022/06/09 03:41:38;;;;;;;19.77;4.88;;;15.30;99.90;;;;;;5031247;28;20366;-66
2022/06/09 03:44:05;;;;;;;17.75;5.35;;;15.30;99.90;;;;;;5031085;28;20485;-65
2022/06/09 03:46:31;;;;;;;16.00;4.97;;;15.30;99.90;;;;;;5030467;28;20040;-66
2022/06/09 03:48:57;;;;;;;13.93;5.25;;;15.30;99.90;;;;;;5030756;28;20107;-66
2022/06/09 03:51:23;;;;;;;17.70;5.43;;;15.30;99.90;;;;;;5031114;28;20526;-66
2022/06/09 03:53:49;;;;;;;21.75;5.75;;;15.30;99.90;;;;;;5030270;28;20053;-66
2022/06/09 03:56:19;;;;;;;14.35;6.35;;;15.30;99.90;;;;;;5031011;28;20053;-65
2022/06/09 03:58:45;;;;;;;;;;;15.30;99.90;;;;;;5031205;28;20017;-66
2022/06/09 04:01:17;;;;;;;19.10;6.72;;;15.40;99.90;;;;;;5030900;28;19913;-65
2022/06/09 04:03:44;;;;;;;23.83;7.75;;;15.30;99.90;;;;;;5031061;28;20040;-65
2022/06/09 04:06:15;;;;;;;16.05;6.65;;;15.30;99.90;;;;;;5030782;28;20045;-65
2022/06/09 04:08:42;;;;;;;21.08;7.85;;;15.30;99.90;;;;;;5029828;28;20087;-65
2022/06/09 04:11:09;;;;;;;25.20;9.63;;;15.30;99.90;;;;;;5030824;28;20500;-66
2022/06/09 04:13:36;;;;;;;21.65;8.10;;;15.30;99.90;;;;;;5030490;28;20450;-65
2022/06/09 04:16:06;;;;;;;29.60;9.40;;;15.30;99.90;;;;;;5030765;28;20025;-66
2022/06/09 04:18:32;;;;;;;19.35;8.15;;;15.40;99.90;;;;;;5030167;28;20437;-65
2022/06/09 04:20:58;;;;;;;17.35;7.47;;;15.40;99.90;;;;;;5030423;28;20433;-66
2022/06/09 04:23:25;;;;;;;23.70;9.50;;;15.40;99.90;;;;;;5030092;28;20125;-65
2022/06/09 04:25:51;;;;;;;19.88;8.18;;;15.40;99.90;;;;;;5030170;28;20036;-66
2022/06/09 04:28:18;;;;;;;19.85;7.85;;;15.40;99.90;;;;;;5030222;28;20025;-66
2022/06/09 04:30:48;;;;;;;22.35;9.10;;;15.40;99.90;;;;;;5030092;28;20067;-67
2022/06/09 04:33:14;;;;;;;21.33;9.18;;;15.30;99.90;;;;;;5030321;28;20071;-67
2022/06/09 04:35:39;;;;;;;21.00;8.77;;;15.40;99.90;;;;;;5028880;28;20049;-66
2022/06/09 04:38:07;;;;;;;21.35;7.93;;;15.30;99.90;;;;;;5029771;28;20026;-66
2022/06/09 04:40:38;;;;;;;22.42;9.05;;;15.40;99.90;;;;;;5030271;28;20034;-66
2022/06/09 04:43:06;;;;;;;20.92;8.13;;;15.30;99.90;;;;;;5030072;28;20061;-66
2022/06/09 04:45:32;;;;;;;19.77;7.87;;;15.30;99.90;;;;;;5030479;28;20080;-66
2022/06/09 04:47:58;;;;;;;22.25;9.68;;;15.30;99.90;;;;;;5029868;28;20291;-66
2022/06/09 04:50:25;;;;;;;26.77;9.25;;;15.30;99.90;;;;;;5029795;28;20069;-66
2022/06/09 04:52:51;;;;;;;21.67;8.70;;;15.40;99.90;;;;;;5029759;28;20029;-66
2022/06/09 04:55:18;;;;;;;24.73;8.38;;;15.30;99.90;;;;;;5030196;28;20025;-66
2022/06/09 04:57:44;;;;;;;21.73;8.20;;;15.40;99.90;;;;;;5032150;28;20367;-66
2022/06/09 05:00:12;;;;;;;20.92;8.30;;;15.40;99.90;;;;;;5034672;28;20042;-66
2022/06/09 05:02:38;;;;;;;25.77;9.70;;;15.40;99.90;;;;;;5032836;28;20098;-66
2022/06/09 05:05:06;;;;;;;22.17;8.55;;;15.40;99.90;;;;;;5034326;28;20484;-66
2022/06/09 05:07:32;;;;;;;22.10;8.73;;;15.40;99.90;;;;;;5032149;28;20030;-66
2022/06/09 05:09:57;;;;;;;24.17;10.73;;;15.40;99.90;;;;;;5033854;28;20030;-66
2022/06/09 05:12:23;;;;;;;22.60;9.98;;;15.40;99.90;;;;;;5033877;28;20022;-66
2022/06/09 05:14:51;;;;;;;23.55;9.38;;;15.50;99.90;;;;;;5034081;28;20025;-66
2022/06/09 05:17:18;;;;;;;27.15;9.20;;;15.40;99.90;;;;;;5033565;28;20542;-66
2022/06/09 05:19:45;;;;;;;26.73;9.32;;;15.50;99.90;;;;;;5032503;28;20030;-66
2022/06/09 05:22:12;;;;;;;23.27;9.40;;;15.50;99.90;;;;;;5033594;28;20025;-66
2022/06/09 05:24:38;;;;;;;17.30;8.98;;;15.50;99.90;;;;;;5033823;28;20454;-66
2022/06/09 05:27:04;;;;;;;26.80;9.18;;;15.50;99.90;;;;;;5033286;28;20033;-66
2022/06/09 05:29:30;;;;;;;23.52;9.07;;;15.50;99.90;;;;;;5033510;28;20047;-66
2022/06/09 05:31:56;;;;;;;22.58;9.52;;;15.50;99.90;;;;;;5033408;28;20109;-66
2022/06/09 05:34:22;;;;;;;21.98;9.27;;;15.50;99.90;;;;;;5033567;28;20508;-66
2022/06/09 05:36:47;;;;;;;21.17;9.57;;;15.50;99.90;;;;;;5033901;28;20053;-66
2022/06/09 05:44:51;;;;;;;30.42;9.23;;;15.60;99.90;;;;;;5033610;28;20029;-67
2022/06/09 05:47:22;;;;;;;27.20;8.70;;;15.50;99.90;;;;;;5033107;28;20030;-66
2022/06/09 05:49:54;;;;;;;21.35;8.57;;;15.60;99.90;;;;;;5033102;28;20036;-66
2022/06/09 05:52:25;;;;;;;22.98;9.90;;;15.60;99.90;;;;;;5031463;28;20148;-66
2022/06/09 05:54:51;;;;;;;22.02;8.82;;;15.60;99.90;;;;;;5033300;28;20506;-66
2022/06/09 05:57:21;;;;;;;19.98;8.95;;;15.70;99.90;;;;;;5032962;28;20029;-66
2022/06/09 05:59:48;;;;;;;22.35;8.75;;;15.70;99.90;;;;;;5033213;28;20089;-66
2022/06/09 06:02:15;;;;;;;27.77;10.13;;;15.70;99.90;;;;;;5033056;28;20033;-66
2022/06/09 06:04:42;;;;;;;26.73;11.25;;;15.70;99.90;;;;;;5032952;28;20386;-66
2022/06/09 06:07:08;;;;;;;22.83;9.77;;;15.70;99.90;;;;;;5031665;28;20192;-66
2022/06/09 06:09:35;;;;;;;23.92;9.23;;;15.80;99.90;;;;;;5032036;28;20050;-66
2022/06/09 06:12:03;;;;;;;25.20;10.55;;;15.80;99.90;;;;;;5032952;28;20044;-66
2022/06/09 06:14:30;;;;;;;23.15;9.27;;;15.80;99.90;;;;;;5032944;28;20033;-66
2022/06/09 06:16:57;;;;;;;18.35;9.43;;;15.80;99.90;;;;;;5032535;28;20049;-66
2022/06/09 06:19:24;;;;;;;19.00;9.65;;;15.80;99.90;;;;;;5032522;28;20041;-66
2022/06/09 06:21:51;;;;;;;23.15;9.77;;;15.80;99.90;;;;;;5032994;28;20068;-66
2022/06/09 06:24:20;;;;;;;22.17;10.23;;;15.80;99.90;;;;;;5032228;28;20487;-66
2022/06/09 06:26:46;;;;;;;23.02;10.32;;;15.80;99.90;;;;;;5032409;28;20032;-66
2022/06/09 06:29:15;;;;;;;24.08;11.50;;;15.80;99.90;;;;;;5032338;28;20030;-66
2022/06/09 06:31:43;;;;;;;29.65;11.50;;;15.90;99.90;;;;;;5032388;28;20059;-66
2022/06/09 06:34:09;;;;;;;32.10;12.57;;;15.90;99.90;;;;;;5032604;28;20037;-66
2022/06/09 06:36:35;;;;;;;25.02;11.20;;;15.90;99.90;;;;;;5032202;28;20033;-66
2022/06/09 06:39:02;;;;;;;24.67;10.98;;;15.80;99.90;;;;;;5031682;28;20036;-66
2022/06/09 06:41:30;;;;;;;27.45;10.75;;;15.80;99.90;;;;;;5032420;28;20018;-66
2022/06/09 06:43:57;;;;;;;22.27;11.13;;;15.80;99.90;;;;;;5032449;28;20029;-66
2022/06/09 06:46:23;;;;;;;24.45;11.38;;;15.80;99.90;;;;;;5032464;28;20026;-67
2022/06/09 06:48:49;;;;;;;24.45;11.43;;;15.80;99.90;;;;;;5031948;28;20029;-66
2022/06/09 06:51:15;;;;;;;27.58;12.13;;;15.70;99.90;;;;;;5032117;28;20041;-66
2022/06/09 06:53:42;;;;;;;23.80;11.85;;;15.70;99.90;;;;;;5031703;28;20057;-66
2022/06/09 06:56:09;;;;;;;26.73;11.68;;;15.70;99.90;;;;;;5032214;28;20390;-66
2022/06/09 06:58:35;;;;;;;27.58;11.90;;;15.70;99.90;;;;;;5031737;28;20417;-66
2022/06/09 07:01:02;;;;;;;23.45;10.98;;;15.70;99.90;;;;;;5032158;28;20401;-66
2022/06/09 07:03:29;;;;;;;22.15;12.10;;;15.80;99.90;;;;;;5031900;28;20034;-66
2022/06/09 07:05:56;;;;;;;25.50;11.80;;;15.80;99.90;;;;;;5032168;28;20370;-66
2022/06/09 07:08:24;;;;;;;20.10;10.43;;;15.80;99.90;;;;;;5029908;28;20096;-66
2022/06/09 07:10:52;;;;;;;24.13;11.60;;;15.80;99.90;;;;;;5031645;28;20033;-66
2022/06/09 07:13:18;;;;;;;30.40;12.40;;;15.90;99.90;;;;;;5031699;28;20065;-66
2022/06/09 07:15:44;;;;;;;23.90;11.35;;;15.90;99.90;;;;;;5030460;28;20061;-66
2022/06/09 07:18:10;;;;;;;23.17;11.57;;;15.90;99.90;;;;;;5031129;28;20283;-66
2022/06/09 07:20:39;;;;;;;24.58;10.77;;;15.90;99.90;;;;;;5030037;28;20060;-66
2022/06/09 07:23:05;;;;;;;26.20;13.05;;;15.90;99.90;;;;;;5031005;28;20029;-66
2022/06/09 07:25:31;;;;;;;29.55;13.38;;;15.90;99.90;;;;;;5031621;28;20029;-66
2022/06/09 07:27:57;;;;;;;20.73;11.02;;;15.90;99.90;;;;;;5031284;28;20037;-66
2022/06/09 07:30:25;;;;;;;21.95;11.18;;;16.00;99.90;;;;;;5031688;28;20113;-66
2022/06/09 07:32:51;;;;;;;22.08;13.25;;;15.90;99.90;;;;;;5031373;28;20052;-66
2022/06/09 07:35:22;;;;;;;21.83;11.43;;;15.90;99.90;;;;;;5031859;28;20117;-66
2022/06/09 07:37:48;;;;;;;23.77;12.27;;;15.90;99.90;;;;;;5031007;28;20040;-66
2022/06/09 07:40:15;;;;;;;20.35;12.10;;;16.00;99.90;;;;;;5031311;28;20084;-66
2022/06/09 07:42:41;;;;;;;29.17;13.68;;;16.00;99.90;;;;;;5031756;28;20375;-66
2022/06/09 07:45:09;;;;;;;23.88;12.82;;;16.00;99.90;;;;;;5031330;28;20045;-66
2022/06/09 07:47:35;;;;;;;23.23;13.30;;;16.10;99.90;;;;;;5030967;28;20140;-66
2022/06/09 07:50:02;;;;;;;25.35;16.20;;;16.10;99.90;;;;;;5031118;28;20436;-66
2022/06/09 07:52:28;;;;;;;27.50;15.73;;;16.10;99.90;;;;;;5031083;28;20394;-66
2022/06/09 07:54:54;;;;;;;30.17;15.45;;;16.20;99.90;;;;;;5031686;28;20041;-66
2022/06/09 07:57:20;;;;;;;21.33;13.38;;;16.20;99.90;;;;;;5031085;28;20033;-66
2022/06/09 07:59:46;;;;;;;23.27;14.35;;;16.30;99.90;;;;;;5031023;28;20061;-66
2022/06/09 08:02:12;;;;;;;22.92;12.95;;;16.30;99.90;;;;;;5031420;28;20030;-66
2022/06/09 08:04:38;;;;;;;21.80;12.27;;;16.30;99.90;;;;;;5031341;28;20029;-67
2022/06/09 08:07:04;;;;;;;27.27;13.90;;;16.30;99.90;;;;;;5030397;28;20120;-66
2022/06/09 08:09:31;;;;;;;26.83;13.27;;;16.40;99.90;;;;;;5030935;28;20095;-66
2022/06/09 08:11:57;;;;;;;24.42;13.60;;;16.50;99.90;;;;;;5031240;28;20080;-66
2022/06/09 08:14:23;;;;;;;26.35;13.70;;;16.50;99.90;;;;;;5031320;28;20037;-66
2022/06/09 08:16:49;;;;;;;27.17;14.40;;;16.50;99.90;;;;;;5030906;28;20124;-66
2022/06/09 08:19:15;;;;;;;19.70;12.30;;;16.60;99.90;;;;;;5030641;28;20106;-66
2022/06/09 08:21:42;;;;;;;27.75;13.75;;;16.60;99.90;;;;;;5031088;28;20026;-66
2022/06/09 08:24:09;;;;;;;21.77;11.65;;;16.60;99.90;;;;;;5030448;28;20033;-67
2022/06/09 08:26:35;;;;;;;21.70;10.70;;;16.60;99.90;;;;;;5030868;28;20064;-67
2022/06/09 08:29:01;;;;;;;17.75;10.00;;;16.70;99.90;;;;;;5030498;28;20248;-66
2022/06/09 08:31:28;;;;;;;23.98;10.85;;;16.70;99.90;;;;;;5030033;28;20439;-66
2022/06/09 08:33:54;;;;;;;14.65;9.65;;;16.70;99.90;;;;;;5029713;28;20394;-66
2022/06/09 08:36:20;;;;;;;16.98;8.95;;;16.80;99.90;;;;;;5029433;28;20402;-67
2022/06/09 08:38:48;;;;;;;17.33;10.32;;;16.80;99.90;;;;;;5030145;28;20021;-66
2022/06/09 08:41:33;;;;;;;24.15;10.88;;;16.80;99.90;;;;;;5029554;28;20104;-66
2022/06/09 08:44:21;;;;;;;18.88;9.25;;;16.80;99.90;;;;;;5030632;28;20041;-66
2022/06/09 08:46:55;;;;;;;17.20;9.15;;;16.80;99.90;;;;;;5030741;28;20029;-66
2022/06/09 08:49:27;;;;;;;15.85;9.10;;;16.80;99.90;;;;;;5030432;28;20036;-66
2022/06/09 08:51:57;;;;;;;19.38;8.93;;;16.80;99.90;;;;;;5030596;28;20482;-66
2022/06/09 08:54:35;;;;;;;20.40;8.00;;;16.80;99.90;;;;;;5030203;28;20036;-66
2022/06/09 08:57:11;;;;;;;15.02;7.22;;;16.90;99.90;;;;;;5030484;28;20022;-66
2022/06/09 08:59:39;;;;;;;13.77;7.40;;;16.90;99.90;;;;;;5030613;28;20497;-66
2022/06/09 09:02:26;;;;;;;15.10;8.05;;;16.90;99.90;;;;;;5030103;28;20037;-66
2022/06/09 09:05:06;;;;;;;14.35;6.40;;;16.90;99.90;;;;;;5030414;28;20395;-66
2022/06/09 09:07:42;;;;;;;14.65;6.18;;;17.00;99.90;;;;;;5029749;28;20044;-66
2022/06/09 09:10:31;;;;;;;16.95;6.53;;;17.00;99.90;;;;;;5030429;28;20404;-66
2022/06/09 09:13:08;;;;;;;17.02;7.07;;;17.00;99.90;;;;;;5030501;28;20113;-66
2022/06/09 09:15:53;;;;;;;17.20;7.35;;;17.00;99.90;;;;;;5030253;28;20052;-66
2022/06/09 09:18:28;;;;;;;19.08;7.45;;;17.00;99.90;;;;;;5029994;28;20026;-66
2022/06/09 09:21:02;;;;;;;16.77;6.40;;;17.00;99.90;;;;;;5029156;28;20048;-66
2022/06/09 09:23:53;;;;;;;18.42;7.22;;;17.10;99.90;;;;;;5029847;28;20053;-66
2022/06/09 09:26:25;;;;;;;13.57;6.53;;;17.20;99.90;;;;;;5002867;28;20041;-66
2022/06/09 09:29:11;;;;;;;19.13;7.28;;;17.20;99.90;;;;;;5029890;28;20120;-66
2022/06/09 09:31:50;;;;;;;13.73;5.90;;;17.30;99.90;;;;;;5029981;28;20030;-66
2022/06/09 09:34:38;;;;;;;18.33;6.55;;;17.30;99.90;;;;;;5028816;28;20030;-66
2022/06/09 09:37:38;;;;;;;19.40;7.10;;;17.20;99.90;;;;;;5029460;28;20367;-66
2022/06/09 09:40:16;;;;;;;17.73;7.20;;;17.10;99.90;;;;;;5030103;28;20040;-66
2022/06/09 09:42:44;;;;;;;14.55;6.75;;;17.00;99.90;;;;;;5031501;28;20030;-67
2022/06/09 09:45:10;;;;;;;15.23;7.27;;;17.00;99.90;;;;;;5034310;28;20048;-66
2022/06/09 09:47:54;;;;;;;16.02;7.68;;;16.90;99.90;;;;;;5033594;28;20412;-66
2022/06/09 09:50:46;;;;;;;13.40;6.70;;;16.90;99.90;;;;;;5033413;28;20048;-66
2022/06/09 09:53:31;;;;;;;17.77;8.57;;;16.90;99.90;;;;;;5033206;28;20021;-66
2022/06/09 09:56:05;;;;;;;14.90;7.97;;;17.00;99.90;;;;;;5033658;28;20466;-66
2022/06/09 09:58:46;;;;;;;13.27;7.32;;;17.00;99.90;;;;;;5033048;28;20524;-66
2022/06/09 10:01:21;;;;;;;15.07;7.18;;;16.90;99.90;;;;;;5033651;28;20038;-66
2022/06/09 10:09:44;;;;;;;10.77;4.63;;;17.00;99.90;;;;;;5033377;28;20029;-67
2022/06/09 10:12:23;;;;;;;9.85;4.68;;;17.10;99.90;;;;;;5033172;28;20025;-66
2022/06/09 10:15:11;;;;;;;17.90;4.43;;;17.20;99.90;;;;;;5033229;28;20083;-66
2022/06/09 10:17:52;;;;;;;9.68;2.88;;;17.30;99.90;;;;;;5032812;28;20025;-67
2022/06/09 10:20:37;;;;;;;6.70;2.83;;;17.40;99.90;;;;;;5033045;28;20136;-66
2022/06/09 10:23:09;;;;;;;5.38;2.50;;;17.50;99.90;;;;;;5032776;28;20120;-66
2022/06/09 10:25:35;;;;;;;13.02;3.50;;;17.50;99.90;;;;;;5033074;28;20033;-67
2022/06/09 10:28:12;;;;;;;14.45;3.45;;;17.60;99.90;;;;;;5032915;28;20025;-67
2022/06/09 10:30:50;;;;;;;7.10;3.08;;;17.60;99.90;;;;;;5033061;28;20437;-66
2022/06/09 10:33:44;;;;;;;15.20;4.28;;;17.60;99.90;;;;;;5033085;28;20030;-66
2022/06/09 10:36:33;;;;;;;7.50;3.47;;;17.60;99.90;;;;;;5032820;28;20045;-66
2022/06/09 10:39:11;;;;;;;13.73;5.82;;;17.60;99.90;;;;;;5032338;28;20099;-66
2022/06/09 10:41:58;;;;;;;11.15;4.47;;;17.60;99.90;;;;;;5032744;28;20030;-66
2022/06/09 10:44:34;;;;;;;11.55;4.70;;;17.60;99.90;;;;;;5032882;28;20063;-66
2022/06/09 10:57:01;;;;;;;19.20;5.43;;;18.10;99.90;;;;;;5032413;28;20061;-67
2022/06/09 10:59:50;;;;;;;16.45;4.93;;;18.20;99.90;;;;;;5031030;28;20427;-67
2022/06/09 11:02:21;;;;;;;12.15;4.30;;;18.30;99.90;;;;;;5032250;28;20030;-67
2022/06/09 11:04:49;;;;;;;11.00;4.97;;;18.40;99.90;;;;;;5032642;28;20152;-67
2022/06/09 11:07:28;;;;;;;10.35;4.43;;;18.40;99.90;;;;;;5031598;28;20087;-67
2022/06/09 11:10:06;;;;;;;23.88;5.35;;;18.40;99.90;;;;;;5032100;28;20427;-67
2022/06/09 11:12:35;;;;;;;9.35;3.88;;;18.40;99.90;;;;;;5030768;28;20025;-67
2022/06/09 11:15:31;;;;;;;10.07;3.17;;;18.40;99.90;;;;;;5032743;28;20029;-67
2022/06/09 11:18:05;;;;;;;13.63;4.43;;;18.50;99.90;;;;;;5031769;28;20049;-67
2022/06/09 11:20:43;;;;;;;13.43;4.97;;;18.60;99.90;;;;;;5031804;28;20033;-65
2022/06/09 11:23:38;;;;;;;8.52;2.80;;;18.60;99.90;;;;;;5031830;28;20136;-65
2022/06/09 11:26:27;;;;;;;10.45;2.97;;;18.70;99.90;;;;;;5031725;28;20104;-65
2022/06/09 11:29:20;;;;;;;5.60;3.08;;;18.80;99.90;;;;;;5031752;28;20029;-65
2022/06/09 11:32:01;;;;;;;7.40;2.70;;;18.80;99.90;;;;;;5031954;28;20075;-66
2022/06/09 11:34:52;;;;;;;9.30;3.25;;;18.90;99.90;;;;;;5031659;28;20048;-65
2022/06/09 11:37:35;;;;;;;8.13;2.95;;;19.00;99.90;;;;;;5031113;28;20026;-66
2022/06/09 11:40:42;;;;;;;6.72;3.05;;;19.00;99.90;;;;;;5031614;28;20037;-65
2022/06/09 11:43:36;;;;;;;18.73;4.38;;;19.00;99.90;;;;;;5014816;28;20387;-66
2022/06/09 11:46:09;;;;;;;8.75;2.78;;;18.90;99.90;;;;;;5031699;28;20029;-65
2022/06/09 11:48:55;;;;;;;7.72;3.40;;;18.90;99.90;;;;;;5031219;28;20109;-65
2022/06/09 11:51:25;;;;;;;11.80;4.10;;;18.80;99.90;;;;;;5030205;28;20041;-66
2022/06/09 11:53:54;;;;;;;10.93;3.95;;;18.80;99.90;;;;;;5029669;28;20486;-65
2022/06/09 11:56:40;;;;;;;8.43;3.80;;;18.70;99.90;;;;;;5031301;28;20037;-65
2022/06/09 11:59:12;;;;;;;9.07;4.05;;;18.70;99.90;;;;;;5031008;28;20033;-65
2022/06/09 12:01:38;;;;;;;9.77;4.53;;;18.70;99.90;;;;;;5031205;28;20116;-65
2022/06/09 12:04:19;;;;;;;8.85;3.90;;;18.80;99.90;;;;;;5031619;28;20121;-65
2022/06/09 12:07:22;;;;;;;11.10;3.03;;;18.80;99.90;;;;;;5030399;28;20037;-65
2022/06/09 12:10:00;;;;;;;7.10;2.60;;;18.80;99.90;;;;;;5029531;28;20029;-65
2022/06/09 12:12:35;;;;;;;8.32;2.55;;;18.70;99.90;;;;;;5030884;28;20029;-65
2022/06/09 12:15:31;;;;;;;5.55;2.78;;;18.70;99.90;;;;;;5031125;28;20099;-65
2022/06/09 12:18:12;;;;;;;8.43;2.80;;;18.70;99.90;;;;;;5030631;28;20067;-65
2022/06/09 12:20:47;;;;;;;6.65;1.83;;;18.70;99.90;;;;;;5030863;28;20060;-65
2022/06/09 12:23:34;;;;;;;6.70;2.40;;;18.60;99.90;;;;;;5030586;28;20033;-65
2022/06/09 12:26:09;;;;;;;7.30;2.90;;;18.60;99.90;;;;;;5030815;28;20087;-65
2022/06/09 12:28:46;;;;;;;7.90;2.67;;;18.60;99.90;;;;;;5030332;28;20061;-65
2022/06/09 12:31:16;;;;;;;4.72;1.90;;;18.60;99.90;;;;;;5030884;28;20076;-65
2022/06/09 12:34:04;;;;;;;2.92;1.40;;;18.70;99.90;;;;;;5029326;28;20025;-65
2022/06/09 12:36:38;;;;;;;4.93;1.50;;;18.70;99.90;;;;;;5031228;28;20108;-65
2022/06/09 12:39:13;;;;;;;5.32;1.48;;;18.70;99.90;;;;;;5029946;28;20028;-65
2022/06/09 12:41:43;;;;;;;3.13;1.40;;;18.70;99.90;;;;;;5030865;28;20029;-66
2022/06/09 12:44:16;;;;;;;4.28;1.25;;;18.70;99.90;;;;;;5029157;28;20040;-65
2022/06/09 12:46:42;;;;;;;1.40;0.93;;;18.70;99.90;;;;;;5030573;28;20502;-65
2022/06/09 12:49:26;;;;;;;3.33;1.70;;;18.60;99.90;;;;;;5030237;28;20041;-66
2022/06/09 12:51:53;;;;;;;2.83;1.33;;;18.60;99.90;;;;;;5030767;28;20490;-66
2022/06/09 12:54:29;;;;;;;1.45;1.10;;;18.50;99.90;;;;;;5030104;28;20087;-66
2022/06/09 12:57:02;;;;;;;4.35;2.20;;;18.50;99.90;;;;;;5030356;28;20581;-66
2022/06/09 12:59:38;;;;;;;4.03;2.10;;;18.50;99.90;;;;;;5030958;28;20116;-66
2022/06/09 13:02:19;;;;;;;3.53;2.20;;;18.50;99.90;;;;;;5030209;28;20037;-66
2022/06/09 13:04:57;;;;;;;4.22;1.77;;;18.50;99.90;;;;;;5030455;28;20387;-66
2022/06/09 13:07:33;;;;;;;3.95;1.73;;;18.40;99.90;;;;;;5029572;28;20527;-66
2022/06/09 13:10:08;;;;;;;2.65;1.30;;;18.40;99.90;;;;;;5030196;28;20099;-66
2022/06/09 13:12:50;;;;;;;6.63;1.60;;;18.40;99.90;;;;;;5030605;28;20029;-66
2022/06/09 13:15:38;;;;;;;3.03;1.52;;;18.30;99.90;;;;;;5030686;28;20029;-66
2022/06/09 13:18:32;;;;;;;3.05;1.25;;;18.30;99.90;;;;;;5032609;28;20033;-66
2022/06/09 13:21:29;;;;;;;5.15;2.35;;;18.30;99.90;;;;;;5034336;28;20044;-66
2022/06/09 13:23:59;;;;;;;7.00;2.70;;;18.30;99.90;;;;;;5020557;28;20414;-66
2022/06/09 13:26:39;;;;;;;5.55;2.42;;;18.30;99.90;;;;;;5034444;28;20111;-66